Time;durP1;ratioP1;P1;durP2;ratioP2;P2;SDS_P1;SDS_P2;PMS_P1;PMS_P2;Temp;Humidity;BMP_temperature;BMP_pressure;BME280_temperature;BME280_humidity;BME280_pressure;Samples;Min_cycle;Max_cycle;Signal;HPM_P1;HPM_P2
2022/10/08 00:00:29;;;;;;;8.95;2.60;;;14.30;99.90;;;;;;5071060;28;20051;-66
2022/10/08 00:02:55;;;;;;;10.27;2.58;;;12.20;99.90;;;;;;5072628;28;20040;-66
2022/10/08 00:05:20;;;;;;;9.93;2.35;;;12.10;99.90;;;;;;5071366;28;20078;-65
2022/10/08 00:07:46;;;;;;;8.90;2.15;;;12.20;99.90;;;;;;5071160;28;20597;-64
2022/10/08 00:10:12;;;;;;;11.38;2.45;;;12.30;99.90;;;;;;5072160;28;20039;-65
2022/10/08 00:12:38;;;;;;;8.25;2.63;;;12.20;99.90;;;;;;5072100;28;20032;-65
2022/10/08 00:15:05;;;;;;;8.85;2.25;;;12.20;99.90;;;;;;5071623;28;20059;-66
2022/10/08 00:17:30;;;;;;;8.25;2.10;;;12.10;99.90;;;;;;5071034;28;20123;-65
2022/10/08 00:19:56;;;;;;;13.73;2.30;;;12.20;99.90;;;;;;5070543;28;20226;-65
2022/10/08 00:22:23;;;;;;;7.97;1.90;;;12.90;99.90;;;;;;5072336;28;20036;-66
2022/10/08 00:24:52;;;;;;;11.30;2.03;;;12.10;99.90;;;;;;5070634;28;20797;-67
2022/10/08 00:27:22;;;;;;;9.75;2.00;;;12.00;99.90;;;;;;5072211;28;20054;-66
2022/10/08 00:29:50;;;;;;;8.52;2.40;;;12.20;99.90;;;;;;5054033;28;20328;-66
2022/10/08 00:32:18;;;;;;;7.82;2.13;;;12.10;99.90;;;;;;5071736;28;20054;-66
2022/10/08 00:34:45;;;;;;;8.00;1.95;;;12.10;99.90;;;;;;5069516;28;20104;-65
2022/10/08 00:37:11;;;;;;;7.80;2.10;;;12.30;99.90;;;;;;5071392;28;20530;-66
2022/10/08 00:39:37;;;;;;;9.35;1.60;;;12.00;99.90;;;;;;5070594;28;20032;-66
2022/10/08 00:42:03;;;;;;;6.75;1.88;;;12.00;99.90;;;;;;5069388;28;20063;-66
2022/10/08 00:44:53;;;;;;;7.50;1.70;;;12.00;99.90;;;;;;5071333;28;20123;-66
2022/10/08 00:47:37;;;;;;;10.57;1.50;;;12.10;99.90;;;;;;5070429;28;20042;-67
2022/10/08 00:50:11;;;;;;;7.53;1.83;;;12.20;99.90;;;;;;5071248;28;20110;-66
2022/10/08 00:52:46;;;;;;;7.53;1.65;;;12.00;99.90;;;;;;5069187;28;20909;-67
2022/10/08 00:55:14;;;;;;;10.60;2.20;;;12.10;99.90;;;;;;5069704;28;20056;-66
2022/10/08 00:57:41;;;;;;;7.38;2.00;;;12.10;99.90;;;;;;5070586;28;20052;-66
2022/10/08 01:00:11;;;;;;;7.22;1.75;;;10.30;99.90;;;;;;5071694;28;20101;-67
2022/10/08 01:02:37;;;;;;;10.15;2.03;;;11.90;99.90;;;;;;5069529;28;20488;-67
2022/10/08 01:05:05;;;;;;;6.30;1.65;;;12.00;99.90;;;;;;5068905;28;20121;-67
2022/10/08 01:07:47;;;;;;;10.02;1.83;;;12.10;99.90;;;;;;5069009;28;20097;-66
2022/10/08 01:10:40;;;;;;;7.90;1.55;;;12.00;99.90;;;;;;5071334;28;20052;-66
2022/10/08 01:13:43;;;;;;;8.82;1.88;;;11.90;99.90;;;;;;5066441;28;20063;-65
2022/10/08 01:16:34;;;;;;;8.32;1.85;;;11.90;99.90;;;;;;5071030;28;20076;-64
2022/10/08 01:19:39;;;;;;;11.18;1.75;;;12.10;99.90;;;;;;5071415;28;20036;-64
2022/10/08 01:22:20;;;;;;;6.85;2.17;;;11.60;99.90;;;;;;5069304;28;20055;-64
2022/10/08 01:27:42;;;;;;;7.45;1.83;;;11.90;99.90;;;;;;5067571;28;20047;-63
2022/10/08 01:30:14;;;;;;;8.95;2.20;;;11.90;99.90;;;;;;5068271;28;20138;-64
2022/10/08 01:32:47;;;;;;;4.85;1.30;;;11.90;99.90;;;;;;5069269;28;20043;-64
2022/10/08 01:35:32;;;;;;;9.52;1.75;;;11.70;99.90;;;;;;5071037;28;20051;-64
2022/10/08 01:38:03;;;;;;;10.18;1.67;;;12.90;99.90;;;;;;5069190;28;20105;-64
2022/10/08 01:40:34;;;;;;;8.23;1.98;;;11.80;99.90;;;;;;5069502;28;20040;-64
2022/10/08 01:43:02;;;;;;;8.63;1.60;;;11.80;99.90;;;;;;5068919;28;20173;-64
2022/10/08 01:45:33;;;;;;;8.77;1.73;;;13.90;99.90;;;;;;5069676;28;20403;-65
2022/10/08 01:48:03;;;;;;;8.05;1.70;;;11.70;99.90;;;;;;5069471;28;20063;-65
2022/10/08 01:50:40;;;;;;;6.28;1.48;;;11.60;99.90;;;;;;5074128;28;20047;-65
2022/10/08 01:53:13;;;;;;;6.60;1.70;;;11.50;99.90;;;;;;5074124;28;20170;-67
2022/10/08 01:55:43;;;;;;;5.03;1.50;;;11.70;99.90;;;;;;5072871;28;20535;-66
2022/10/08 01:58:18;;;;;;;7.57;1.80;;;11.70;99.90;;;;;;5071390;28;20508;-65
2022/10/08 02:00:46;;;;;;;9.38;2.08;;;11.60;99.90;;;;;;5074822;28;20032;-65
2022/10/08 02:03:11;;;;;;;8.18;1.90;;;11.50;99.90;;;;;;5075170;28;20051;-64
2022/10/08 02:05:42;;;;;;;9.40;2.38;;;11.50;99.90;;;;;;5075117;28;20543;-64
2022/10/08 02:08:08;;;;;;;6.70;2.03;;;11.50;99.90;;;;;;5074454;28;20086;-64
2022/10/08 02:10:34;;;;;;;7.38;2.10;;;11.30;99.90;;;;;;5073496;28;20064;-64
2022/10/08 02:13:00;;;;;;;11.23;1.90;;;11.40;99.90;;;;;;5074493;28;20048;-64
2022/10/08 02:15:53;;;;;;;5.68;2.22;;;12.10;99.90;;;;;;5074314;28;20066;-64
2022/10/08 02:18:38;;;;;;;10.02;2.45;;;11.30;99.90;;;;;;5075292;28;20043;-64
2022/10/08 02:21:15;;;;;;;11.43;3.65;;;12.90;99.90;;;;;;5073600;28;20044;-64
2022/10/08 02:23:51;;;;;;;9.82;2.20;;;11.20;99.90;;;;;;5074480;28;20040;-64
2022/10/08 02:26:24;;;;;;;11.50;2.40;;;13.30;99.90;;;;;;5073651;28;20467;-65
2022/10/08 02:29:13;;;;;;;11.82;2.70;;;11.30;99.90;;;;;;5072664;28;20454;-63
2022/10/08 02:31:50;;;;;;;9.00;2.40;;;11.10;99.90;;;;;;5072430;28;20433;-63
2022/10/08 02:34:45;;;;;;;11.13;2.40;;;11.30;99.90;;;;;;5072561;28;20690;-64
2022/10/08 02:37:10;;;;;;;11.60;2.58;;;11.00;99.90;;;;;;5068299;28;20110;-63
2022/10/08 02:39:39;;;;;;;14.63;2.55;;;11.20;99.90;;;;;;5074075;28;20039;-63
2022/10/08 02:42:10;;;;;;;12.10;2.42;;;11.70;99.90;;;;;;5072155;28;20104;-64
2022/10/08 02:44:44;;;;;;;6.18;2.08;;;11.70;99.90;;;;;;5072975;28;20047;-63
2022/10/08 02:47:15;;;;;;;6.68;2.17;;;11.10;99.90;;;;;;5073114;28;20044;-63
2022/10/08 02:49:52;;;;;;;11.63;2.33;;;11.90;99.90;;;;;;5071970;28;20184;-63
2022/10/08 02:52:19;;;;;;;15.15;2.90;;;11.20;99.90;;;;;;5073474;28;21057;-64
2022/10/08 02:54:49;;;;;;;10.00;2.72;;;11.20;99.90;;;;;;5074130;28;20059;-64
2022/10/08 02:57:28;;;;;;;11.15;3.28;;;11.30;99.90;;;;;;5073416;28;20093;-64
2022/10/08 02:59:54;;;;;;;11.15;3.13;;;11.10;99.90;;;;;;5072877;28;20061;-64
2022/10/08 03:02:39;;;;;;;10.93;2.78;;;11.10;99.90;;;;;;5071142;28;20050;-64
2022/10/08 03:05:11;;;;;;;10.15;3.10;;;11.10;99.90;;;;;;5074480;28;20154;-64
2022/10/08 03:07:37;;;;;;;10.07;3.20;;;11.20;99.90;;;;;;5074196;28;20139;-64
2022/10/08 03:10:05;;;;;;;7.50;2.60;;;11.30;99.90;;;;;;5073835;28;20130;-64
2022/10/08 03:12:31;;;;;;;12.45;3.42;;;11.20;99.90;;;;;;5073567;28;20499;-64
2022/10/08 03:14:58;;;;;;;14.35;3.90;;;11.40;99.90;;;;;;5074292;28;20048;-64
2022/10/08 03:17:37;;;;;;;10.73;3.50;;;11.30;99.90;;;;;;5074429;28;20044;-64
2022/10/08 03:20:05;;;;;;;12.52;3.22;;;11.30;99.90;;;;;;5072935;28;20453;-64
2022/10/08 03:22:32;;;;;;;11.10;3.20;;;11.30;99.90;;;;;;5073551;28;20139;-64
2022/10/08 03:24:58;;;;;;;12.50;3.17;;;12.70;99.90;;;;;;5073175;28;20042;-65
2022/10/08 03:27:24;;;;;;;11.25;3.10;;;11.30;99.90;;;;;;5072388;28;20043;-65
2022/10/08 03:29:55;;;;;;;17.25;3.40;;;11.50;99.90;;;;;;5072336;28;20306;-65
2022/10/08 03:32:24;;;;;;;15.02;3.60;;;11.50;99.90;;;;;;5073412;28;20054;-64
2022/10/08 03:34:50;;;;;;;12.38;3.53;;;11.50;99.90;;;;;;5072878;28;20411;-64
2022/10/08 03:37:16;;;;;;;15.35;3.20;;;11.50;99.90;;;;;;5071968;28;20105;-64
2022/10/08 03:39:42;;;;;;;15.40;4.18;;;12.30;99.90;;;;;;5073161;28;20044;-64
2022/10/08 03:42:08;;;;;;;10.38;2.88;;;12.60;99.90;;;;;;5072933;28;20032;-64
2022/10/08 03:44:34;;;;;;;15.52;3.55;;;11.70;99.90;;;;;;5073327;28;20057;-64
2022/10/08 03:47:00;;;;;;;13.85;3.33;;;12.20;99.90;;;;;;5073135;28;20067;-63
2022/10/08 03:49:26;;;;;;;12.63;2.65;;;11.40;99.90;;;;;;5072395;28;20126;-64
2022/10/08 03:51:51;;;;;;;14.02;3.00;;;11.70;99.90;;;;;;5072354;28;20028;-64
2022/10/08 03:54:17;;;;;;;16.52;3.13;;;12.70;99.90;;;;;;5070158;28;20063;-64
2022/10/08 03:56:43;;;;;;;13.77;2.80;;;13.50;99.90;;;;;;5072295;28;20135;-63
2022/10/08 03:59:08;;;;;;;13.93;2.80;;;11.20;99.90;;;;;;5072828;28;20169;-63
2022/10/08 04:01:34;;;;;;;12.52;3.13;;;11.10;99.90;;;;;;5071194;28;20043;-64
2022/10/08 04:04:00;;;;;;;10.45;2.85;;;11.40;99.90;;;;;;5071016;28;20071;-63
2022/10/08 04:06:26;;;;;;;13.68;2.80;;;12.40;99.90;;;;;;5067860;28;21237;-63
2022/10/08 04:08:52;;;;;;;13.45;3.05;;;11.10;99.90;;;;;;5070231;28;20593;-63
2022/10/08 04:11:18;;;;;;;13.88;2.97;;;11.20;99.90;;;;;;5070567;28;20104;-63
2022/10/08 04:13:45;;;;;;;14.18;3.33;;;11.80;99.90;;;;;;5070869;28;20107;-63
2022/10/08 04:16:13;;;;;;;11.55;2.80;;;11.10;99.90;;;;;;5071997;28;20857;-63
2022/10/08 04:18:39;;;;;;;14.52;2.83;;;10.90;99.90;;;;;;5070965;28;20044;-64
2022/10/08 04:21:07;;;;;;;13.52;3.22;;;12.30;99.90;;;;;;5069454;28;20361;-64
2022/10/08 04:23:35;;;;;;;14.57;2.90;;;11.40;99.90;;;;;;5071088;28;20039;-63
2022/10/08 04:26:01;;;;;;;14.98;3.05;;;10.90;99.90;;;;;;5071291;28;20144;-63
2022/10/08 04:28:27;;;;;;;15.15;2.58;;;11.70;99.90;;;;;;5071765;28;20101;-63
2022/10/08 04:31:11;;;;;;;14.48;2.42;;;10.70;99.90;;;;;;5071483;28;20043;-63
2022/10/08 04:33:37;;;;;;;17.77;2.75;;;10.60;99.90;;;;;;5071682;28;20108;-63
2022/10/08 04:36:17;;;;;;;17.15;3.40;;;10.70;99.90;;;;;;5072661;28;20036;-63
2022/10/08 04:38:43;;;;;;;14.85;2.63;;;10.60;99.90;;;;;;5071157;28;20125;-63
2022/10/08 04:41:17;;;;;;;14.65;2.83;;;12.00;99.90;;;;;;5072316;28;20040;-63
2022/10/08 04:43:44;;;;;;;12.43;2.92;;;10.30;99.90;;;;;;5070712;28;20547;-63
2022/10/08 04:46:12;;;;;;;17.80;3.13;;;11.70;99.90;;;;;;5066726;28;20033;-63
2022/10/08 04:48:38;;;;;;;13.48;3.58;;;10.40;99.90;;;;;;5066581;28;20069;-63
2022/10/08 04:51:06;;;;;;;17.92;3.67;;;10.50;99.90;;;;;;5066092;28;20024;-63
2022/10/08 04:53:32;;;;;;;14.57;3.00;;;10.30;99.90;;;;;;5071531;28;20083;-63
2022/10/08 04:56:08;;;;;;;11.75;3.17;;;10.40;99.90;;;;;;5073071;28;20568;-63
2022/10/08 04:58:33;;;;;;;13.10;2.97;;;8.20;99.90;;;;;;5072030;28;20028;-63
2022/10/08 05:01:03;;;;;;;14.77;3.35;;;10.40;99.90;;;;;;5071427;28;20044;-63
2022/10/08 05:03:29;;;;;;;9.98;2.80;;;10.60;99.90;;;;;;5069861;28;20387;-63
2022/10/08 05:05:55;;;;;;;19.02;3.42;;;10.40;99.90;;;;;;5072395;28;20125;-63
2022/10/08 05:08:20;;;;;;;14.63;3.20;;;11.40;99.90;;;;;;5069679;28;20119;-63
2022/10/08 05:10:49;;;;;;;12.68;2.90;;;10.30;99.90;;;;;;5071688;28;20092;-63
2022/10/08 05:13:15;;;;;;;15.50;3.13;;;11.90;99.90;;;;;;5071069;28;20035;-63
2022/10/08 05:15:40;;;;;;;11.73;2.83;;;10.30;99.90;;;;;;5069200;28;20098;-64
2022/10/08 05:18:06;;;;;;;13.38;2.72;;;11.30;99.90;;;;;;5070863;28;20036;-64
2022/10/08 05:20:35;;;;;;;12.35;2.88;;;10.20;99.90;;;;;;5069778;28;20259;-64
2022/10/08 05:23:01;;;;;;;18.33;3.45;;;10.30;99.90;;;;;;5070168;28;20043;-64
2022/10/08 05:25:30;;;;;;;14.07;2.72;;;10.40;99.90;;;;;;5069085;28;20040;-64
2022/10/08 05:27:56;;;;;;;17.35;3.40;;;10.90;99.90;;;;;;5068540;28;20051;-64
2022/10/08 05:30:21;;;;;;;11.73;2.40;;;10.30;99.90;;;;;;5067446;28;20035;-64
2022/10/08 05:32:47;;;;;;;15.02;3.08;;;10.80;99.90;;;;;;5068125;28;20405;-64
2022/10/08 05:35:13;;;;;;;17.92;3.35;;;10.30;99.90;;;;;;5067621;28;20299;-64
2022/10/08 05:37:38;;;;;;;19.13;2.92;;;11.40;99.90;;;;;;5067144;28;20040;-64
2022/10/08 05:40:04;;;;;;;17.38;2.95;;;10.30;99.90;;;;;;5066809;28;20040;-65
2022/10/08 05:42:30;;;;;;;17.15;4.78;;;10.40;99.90;;;;;;5068480;28;20045;-64
2022/10/08 05:44:56;;;;;;;13.57;2.90;;;10.40;99.90;;;;;;5067732;28;20622;-64
2022/10/08 05:47:21;;;;;;;16.55;2.75;;;11.20;99.90;;;;;;5068626;28;20036;-65
2022/10/08 05:49:47;;;;;;;11.70;2.33;;;10.80;99.90;;;;;;5067105;28;20046;-64
2022/10/08 05:52:13;;;;;;;13.02;2.20;;;10.20;99.90;;;;;;5065807;28;20040;-64
2022/10/08 05:54:39;;;;;;;15.40;2.55;;;10.40;99.90;;;;;;5065960;28;20052;-64
2022/10/08 05:57:04;;;;;;;15.98;2.40;;;11.80;99.90;;;;;;5069951;28;20044;-65
2022/10/08 05:59:30;;;;;;;14.57;2.53;;;10.20;99.90;;;;;;5068427;28;20135;-64
2022/10/08 06:01:56;;;;;;;14.20;2.45;;;10.90;99.90;;;;;;5068502;28;20479;-64
2022/10/08 06:04:21;;;;;;;10.80;2.55;;;10.20;99.90;;;;;;5069968;28;20497;-64
2022/10/08 06:06:47;;;;;;;12.63;2.28;;;11.20;99.90;;;;;;5069940;28;20124;-65
2022/10/08 06:09:15;;;;;;;17.45;2.53;;;10.20;99.90;;;;;;5071039;28;20039;-64
2022/10/08 06:11:41;;;;;;;16.17;2.83;;;10.40;99.90;;;;;;5070580;28;20090;-63
2022/10/08 06:14:10;;;;;;;13.70;2.75;;;12.00;99.90;;;;;;5071360;28;20055;-65
2022/10/08 06:16:36;;;;;;;14.05;2.45;;;10.30;99.90;;;;;;5067948;28;20036;-64
2022/10/08 06:19:05;;;;;;;9.55;2.17;;;10.40;99.90;;;;;;5066070;28;20044;-64
2022/10/08 06:21:30;;;;;;;23.60;2.78;;;10.30;99.90;;;;;;5069748;28;20135;-64
2022/10/08 06:23:59;;;;;;;13.73;2.63;;;10.30;99.90;;;;;;5069803;28;20063;-64
2022/10/08 06:26:28;;;;;;;11.73;2.17;;;10.50;99.90;;;;;;5071023;28;20066;-64
2022/10/08 06:28:54;;;;;;;12.23;2.42;;;10.20;99.90;;;;;;5069116;28;20763;-64
2022/10/08 06:31:21;;;;;;;13.38;2.33;;;10.40;99.90;;;;;;5065841;28;20424;-64
2022/10/08 06:33:47;;;;;;;16.63;2.38;;;10.80;99.90;;;;;;5067130;28;20032;-64
2022/10/08 06:36:15;;;;;;;8.00;2.08;;;10.50;99.90;;;;;;5069917;28;20066;-64
2022/10/08 06:38:41;;;;;;;11.00;2.10;;;10.50;99.90;;;;;;5072796;28;20717;-64
2022/10/08 06:41:07;;;;;;;13.10;2.40;;;12.60;99.90;;;;;;5072670;28;20040;-64
2022/10/08 06:43:33;;;;;;;15.02;2.50;;;10.80;99.90;;;;;;5069186;28;20040;-64
2022/10/08 06:46:03;;;;;;;12.32;2.53;;;11.10;99.90;;;;;;5071395;28;20389;-64
2022/10/08 06:48:29;;;;;;;18.50;2.35;;;10.90;99.90;;;;;;5070012;28;20044;-64
2022/10/08 06:50:59;;;;;;;17.08;2.50;;;10.70;99.90;;;;;;5073049;28;20066;-64
2022/10/08 06:53:25;;;;;;;15.57;2.30;;;10.80;99.90;;;;;;5072367;28;20086;-64
2022/10/08 06:56:07;;;;;;;14.65;2.63;;;10.80;99.90;;;;;;5071379;28;20048;-64
2022/10/08 06:58:37;;;;;;;15.18;2.20;;;11.40;99.90;;;;;;5071275;28;20404;-63
2022/10/08 07:01:12;;;;;;;10.23;2.08;;;10.90;99.90;;;;;;5073900;28;20648;-64
2022/10/08 07:03:38;;;;;;;12.82;2.60;;;11.00;99.90;;;;;;5070848;28;20098;-64
2022/10/08 07:06:09;;;;;;;14.10;2.08;;;10.80;99.90;;;;;;5072351;28;20493;-64
2022/10/08 07:08:35;;;;;;;12.43;2.03;;;11.40;99.90;;;;;;5072324;28;21442;-64
2022/10/08 07:11:12;;;;;;;16.77;2.28;;;11.20;99.90;;;;;;5074112;28;20042;-64
2022/10/08 07:13:40;;;;;;;10.07;1.85;;;11.10;99.90;;;;;;5072904;28;20066;-64
2022/10/08 07:16:08;;;;;;;8.02;1.33;;;11.10;99.90;;;;;;5072929;28;20473;-63
2022/10/08 07:18:35;;;;;;;11.60;2.05;;;11.10;99.90;;;;;;5071313;28;20150;-64
2022/10/08 07:21:02;;;;;;;9.85;1.63;;;11.20;99.90;;;;;;5073103;28;20046;-64
2022/10/08 07:23:28;;;;;;;8.27;2.13;;;11.20;99.90;;;;;;5072509;28;20048;-64
2022/10/08 07:26:08;;;;;;;9.75;1.70;;;11.70;99.90;;;;;;5073032;28;20036;-64
2022/10/08 07:28:36;;;;;;;11.13;1.73;;;12.20;99.90;;;;;;5073956;28;20523;-64
2022/10/08 07:31:04;;;;;;;8.30;1.52;;;12.30;99.90;;;;;;5074854;28;20035;-64
2022/10/08 07:33:31;;;;;;;11.10;1.75;;;12.40;99.90;;;;;;5072679;28;20036;-65
2022/10/08 07:36:09;;;;;;;10.93;1.70;;;12.50;99.90;;;;;;5072114;28;20048;-65
2022/10/08 07:38:35;;;;;;;10.20;1.75;;;12.80;98.00;;;;;;5074173;28;20048;-65
2022/10/08 07:41:01;;;;;;;9.07;1.70;;;12.90;96.30;;;;;;5073832;28;20715;-65
2022/10/08 07:43:26;;;;;;;9.10;1.40;;;12.70;95.20;;;;;;5073095;28;20051;-65
2022/10/08 07:45:52;;;;;;;8.23;1.67;;;12.70;96.00;;;;;;5072520;28;20048;-66
2022/10/08 07:48:19;;;;;;;8.32;1.30;;;11.40;95.80;;;;;;5071842;28;20120;-66
2022/10/08 07:50:45;;;;;;;8.32;1.73;;;12.50;96.30;;;;;;5071322;28;20127;-66
2022/10/08 07:53:11;;;;;;;10.80;1.70;;;13.80;97.60;;;;;;5072938;28;20135;-65
2022/10/08 07:55:37;;;;;;;10.88;1.58;;;12.00;96.20;;;;;;5074272;28;20048;-66
2022/10/08 07:58:02;;;;;;;9.25;1.52;;;12.60;97.00;;;;;;5073930;28;20040;-66
2022/10/08 08:00:28;;;;;;;5.45;1.17;;;12.70;98.70;;;;;;5073077;28;20040;-65
2022/10/08 08:02:54;;;;;;;12.18;1.80;;;12.80;98.40;;;;;;5070633;28;20401;-65
2022/10/08 08:05:20;;;;;;;9.07;1.65;;;12.90;98.50;;;;;;5072878;28;20052;-65
2022/10/08 08:07:46;;;;;;;9.13;1.92;;;12.90;98.90;;;;;;5069928;28;20036;-66
2022/10/08 08:10:11;;;;;;;11.98;1.77;;;12.90;99.90;;;;;;5071212;28;20050;-65
2022/10/08 08:12:37;;;;;;;10.93;1.52;;;13.00;92.10;;;;;;5071937;28;20040;-65
2022/10/08 08:15:03;;;;;;;9.73;1.52;;;13.00;96.00;;;;;;5070653;28;20044;-65
2022/10/08 08:17:29;;;;;;;13.57;1.60;;;13.20;97.70;;;;;;5071922;28;20107;-65
2022/10/08 08:19:54;;;;;;;12.40;2.00;;;15.20;95.20;;;;;;5069407;28;20123;-66
2022/10/08 08:22:20;;;;;;;12.90;2.55;;;13.40;96.30;;;;;;5072022;28;20081;-65
2022/10/08 08:24:46;;;;;;;7.78;1.40;;;11.60;90.80;;;;;;5072649;28;20044;-65
2022/10/08 08:27:12;;;;;;;9.05;1.40;;;15.60;90.60;;;;;;5071901;28;20043;-65
2022/10/08 08:29:38;;;;;;;12.02;1.83;;;13.50;90.80;;;;;;5070766;28;20518;-65
2022/10/08 08:32:04;;;;;;;11.90;2.00;;;13.40;90.90;;;;;;5070470;28;20050;-65
2022/10/08 08:34:30;;;;;;;10.38;2.03;;;14.50;93.20;;;;;;5071486;28;20040;-65
2022/10/08 08:36:58;;;;;;;9.75;1.40;;;13.30;93.40;;;;;;5072143;28;20093;-65
2022/10/08 08:39:26;;;;;;;9.27;1.63;;;13.30;92.20;;;;;;5071685;28;20071;-65
2022/10/08 08:42:19;;;;;;;11.57;2.05;;;13.60;91.00;;;;;;5071478;28;20032;-65
2022/10/08 08:44:59;;;;;;;10.38;1.63;;;13.80;80.80;;;;;;5072427;28;20040;-65
2022/10/08 08:47:30;;;;;;;10.35;1.48;;;13.70;77.00;;;;;;5070997;28;20044;-64
2022/10/08 08:50:21;;;;;;;8.73;1.65;;;13.90;71.70;;;;;;5070971;28;20318;-65
2022/10/08 08:52:47;;;;;;;11.20;2.05;;;14.10;62.50;;;;;;5064417;28;20677;-65
2022/10/08 08:55:16;;;;;;;8.75;1.33;;;14.20;55.30;;;;;;5072992;28;20131;-65
2022/10/08 08:58:06;;;;;;;6.60;1.33;;;14.30;56.20;;;;;;5072231;28;20105;-66
2022/10/08 09:00:35;;;;;;;9.45;1.73;;;14.40;40.90;;;;;;5071641;28;20047;-65
2022/10/08 09:03:05;;;;;;;13.98;2.08;;;14.40;29.10;;;;;;5072102;28;20105;-65
2022/10/08 09:05:34;;;;;;;9.23;1.55;;;14.40;28.40;;;;;;5072179;28;20546;-64
2022/10/08 09:08:18;;;;;;;5.78;1.33;;;14.30;16.40;;;;;;5072519;28;20149;-65
2022/10/08 09:10:55;;;;;;;8.52;1.73;;;14.50;3.80;;;;;;5071032;28;20051;-65
2022/10/08 09:13:29;;;;;;;8.85;1.30;;;14.50;1.50;;;;;;5072376;28;20044;-65
2022/10/08 09:15:55;;;;;;;10.77;1.98;;;14.40;1.00;;;;;;5071819;28;20083;-64
2022/10/08 09:18:22;;;;;;;10.75;1.60;;;14.50;1.10;;;;;;5070841;28;20044;-65
2022/10/08 09:20:48;;;;;;;10.88;1.63;;;14.70;1.00;;;;;;5070189;28;20186;-64
2022/10/08 09:23:22;;;;;;;9.60;1.27;;;14.70;1.00;;;;;;5068930;28;20046;-65
2022/10/08 09:26:21;;;;;;;12.27;1.95;;;14.70;1.00;;;;;;5070798;28;20032;-65
2022/10/08 09:28:50;;;;;;;8.32;1.27;;;14.90;1.00;;;;;;5067055;28;20054;-64
2022/10/08 09:31:29;;;;;;;10.52;1.73;;;14.80;1.00;;;;;;5071507;28;20586;-66
2022/10/08 09:33:56;;;;;;;9.98;1.60;;;14.80;1.00;;;;;;5067963;28;20039;-65
2022/10/08 09:36:35;;;;;;;8.13;1.42;;;15.00;1.00;;;;;;5069161;28;20715;-65
2022/10/08 09:39:04;;;;;;;8.15;1.67;;;15.30;1.00;;;;;;5070013;28;20047;-63
2022/10/08 09:41:30;;;;;;;10.15;1.92;;;15.20;1.00;;;;;;5070342;28;20254;-64
2022/10/08 09:44:16;;;;;;;7.72;1.42;;;15.30;1.00;;;;;;5067806;28;20747;-63
2022/10/08 09:46:43;;;;;;;8.77;1.17;;;15.20;1.00;;;;;;5069931;28;20044;-63
2022/10/08 09:49:20;;;;;;;8.32;1.20;;;14.40;1.00;;;;;;5070452;28;20047;-63
2022/10/08 09:51:48;;;;;;;7.75;1.23;;;14.80;1.00;;;;;;5069319;28;20037;-63
2022/10/08 09:54:20;;;;;;;7.50;1.50;;;14.50;1.00;;;;;;5070223;28;20052;-62
2022/10/08 09:56:52;;;;;;;9.63;1.58;;;14.50;1.00;;;;;;5070800;28;20055;-63
2022/10/08 09:59:19;;;;;;;;;;;14.40;1.00;;;;;;5069387;28;20151;-63
2022/10/08 10:01:46;;;;;;;8.50;1.30;;;14.50;1.00;;;;;;5069874;28;20348;-63
2022/10/08 10:04:36;;;;;;;13.50;1.60;;;14.60;1.00;;;;;;5069463;28;20044;-63
2022/10/08 10:07:03;;;;;;;7.32;1.25;;;14.40;1.00;;;;;;5068910;28;20516;-63
2022/10/08 10:10:01;;;;;;;7.63;1.30;;;14.50;1.00;;;;;;5070422;28;20036;-63
2022/10/08 10:12:38;;;;;;;10.18;2.50;;;14.50;1.00;;;;;;5058622;28;20055;-64
2022/10/08 10:15:39;;;;;;;10.02;1.55;;;14.50;1.00;;;;;;5074001;28;20330;-64
2022/10/08 10:18:12;;;;;;;13.90;1.75;;;14.60;1.00;;;;;;5060375;28;20044;-64
2022/10/08 10:20:49;;;;;;;9.00;2.05;;;14.70;1.00;;;;;;5075201;28;20181;-64
2022/10/08 10:23:48;;;;;;;14.60;2.03;;;15.00;1.00;;;;;;5074565;28;20550;-64
2022/10/08 10:26:36;;;;;;;10.65;1.50;;;15.10;99.90;;;;;;5072752;28;20035;-63
2022/10/08 10:29:29;;;;;;;18.83;2.17;;;15.40;99.90;;;;;;5073633;28;20059;-63
2022/10/08 10:32:04;;;;;;;8.82;1.17;;;15.50;99.90;;;;;;5074611;28;20123;-66
2022/10/08 10:34:34;;;;;;;11.55;1.80;;;15.60;99.90;;;;;;5074411;28;20044;-66
2022/10/08 10:37:05;;;;;;;8.63;1.83;;;15.80;99.90;;;;;;5072427;28;20499;-66
2022/10/08 10:39:35;;;;;;;7.28;1.23;;;15.90;99.90;;;;;;5073464;28;20492;-65
2022/10/08 10:42:24;;;;;;;11.30;1.77;;;16.20;99.90;;;;;;5073305;28;20072;-66
2022/10/08 10:44:56;;;;;;;10.80;2.00;;;16.20;99.90;;;;;;5072617;28;20078;-65
2022/10/08 10:47:24;;;;;;;12.68;1.55;;;16.40;99.90;;;;;;5072734;28;20044;-66
2022/10/08 10:49:51;;;;;;;7.20;1.40;;;16.50;73.90;;;;;;5073557;28;20676;-66
2022/10/08 10:52:33;;;;;;;10.40;1.80;;;16.60;99.90;;;;;;5072598;28;20106;-66
2022/10/08 10:55:07;;;;;;;7.43;1.38;;;16.50;1.00;;;;;;5070726;28;20060;-66
2022/10/08 10:57:48;;;;;;;8.20;1.42;;;16.70;99.90;;;;;;5072181;28;20039;-67
2022/10/08 11:00:21;;;;;;;10.00;1.77;;;16.70;53.20;;;;;;5071963;28;20523;-66
2022/10/08 11:03:23;;;;;;;10.73;1.52;;;17.00;99.90;;;;;;5072225;28;20413;-67
2022/10/08 11:05:57;;;;;;;11.82;1.80;;;16.70;99.90;;;;;;5073207;28;20050;-66
2022/10/08 11:08:34;;;;;;;9.88;1.75;;;16.50;99.90;;;;;;5073170;28;20135;-65
2022/10/08 11:11:17;;;;;;;8.23;1.35;;;16.10;99.90;;;;;;5073380;28;20040;-66
2022/10/08 11:13:50;;;;;;;8.57;1.35;;;16.00;99.90;;;;;;5073943;28;20034;-63
2022/10/08 11:16:30;;;;;;;10.43;1.52;;;15.90;99.90;;;;;;5071520;28;20093;-63
2022/10/08 11:19:03;;;;;;;8.55;1.58;;;15.90;1.00;;;;;;5057143;28;20505;-63
2022/10/08 11:21:43;;;;;;;10.18;2.13;;;15.80;61.60;;;;;;5072078;28;20063;-63
2022/10/08 11:24:18;;;;;;;10.00;1.25;;;15.50;1.00;;;;;;5072924;28;20076;-62
2022/10/08 11:26:58;;;;;;;8.25;1.67;;;15.20;56.10;;;;;;5073569;28;20036;-63
2022/10/08 11:29:36;;;;;;;8.50;1.55;;;15.50;99.90;;;;;;5073815;28;20032;-63
2022/10/08 11:32:02;;;;;;;11.07;1.13;;;15.60;8.30;;;;;;5072430;28;20032;-63
2022/10/08 11:34:34;;;;;;;10.30;1.55;;;15.90;1.00;;;;;;5072937;28;20032;-63
2022/10/08 11:37:21;;;;;;;12.18;1.63;;;16.00;99.90;;;;;;5072609;28;20496;-63
2022/10/08 11:40:06;;;;;;;11.35;1.90;;;16.30;99.90;;;;;;5073505;28;20556;-63
2022/10/08 11:42:48;;;;;;;15.30;2.08;;;16.60;99.90;;;;;;5074571;28;20419;-63
2022/10/08 11:45:29;;;;;;;7.22;1.30;;;16.60;1.00;;;;;;5073431;28;20235;-63
2022/10/08 11:47:58;;;;;;;12.82;2.28;;;16.70;99.90;;;;;;5072454;28;20055;-62
2022/10/08 11:50:25;;;;;;;12.02;1.70;;;16.60;1.00;;;;;;5071579;28;20048;-63
2022/10/08 11:52:54;;;;;;;11.05;1.55;;;16.30;1.00;;;;;;5072127;28;20070;-62
2022/10/08 11:55:32;;;;;;;8.63;1.58;;;16.30;99.90;;;;;;5071452;28;20127;-63
2022/10/08 11:58:05;;;;;;;9.13;1.48;;;16.30;99.90;;;;;;5068816;28;20094;-63
2022/10/08 12:00:31;;;;;;;14.15;2.30;;;16.30;99.90;;;;;;5070062;28;20093;-62
2022/10/08 12:02:58;;;;;;;7.68;1.73;;;16.30;1.00;;;;;;5070591;28;20071;-63
2022/10/08 12:05:37;;;;;;;17.40;2.67;;;16.00;1.00;;;;;;5070459;28;20044;-62
2022/10/08 12:08:05;;;;;;;8.40;1.60;;;16.10;1.00;;;;;;5070688;28;20204;-63
2022/10/08 12:10:40;;;;;;;9.18;1.58;;;16.10;99.90;;;;;;5071778;28;20446;-62
2022/10/08 12:13:08;;;;;;;10.07;1.63;;;16.10;99.90;;;;;;5069570;28;20037;-62
2022/10/08 12:15:37;;;;;;;8.20;1.50;;;16.10;99.90;;;;;;5069266;28;20726;-61
2022/10/08 12:18:09;;;;;;;14.88;2.53;;;15.80;1.00;;;;;;5070922;28;20514;-62
2022/10/08 12:20:37;;;;;;;6.18;1.23;;;16.10;99.90;;;;;;5071495;28;20040;-62
2022/10/08 12:23:08;;;;;;;10.32;1.65;;;16.10;99.90;;;;;;5070195;28;20441;-62
2022/10/08 12:25:47;;;;;;;9.20;1.50;;;16.00;99.90;;;;;;5069160;28;20043;-62
2022/10/08 12:28:19;;;;;;;10.43;2.00;;;16.30;99.90;;;;;;5069073;28;21852;-62
2022/10/08 12:30:55;;;;;;;9.07;2.38;;;16.30;99.90;;;;;;5069344;28;20047;-63
2022/10/08 12:33:21;;;;;;;10.35;2.30;;;16.40;99.90;;;;;;5069200;28;20036;-62
2022/10/08 12:35:56;;;;;;;12.10;1.88;;;16.30;1.00;;;;;;5070267;28;20403;-62
2022/10/08 12:38:30;;;;;;;8.68;1.85;;;16.30;99.90;;;;;;5070708;28;20036;-62
2022/10/08 12:41:15;;;;;;;8.32;1.73;;;16.10;99.90;;;;;;5071957;28;20040;-63
2022/10/08 12:43:44;;;;;;;6.38;1.10;;;16.10;99.90;;;;;;5071683;28;20511;-62
2022/10/08 12:46:37;;;;;;;9.02;1.42;;;16.00;86.70;;;;;;5071522;28;20497;-62
2022/10/08 12:49:22;;;;;;;5.50;1.20;;;15.90;96.80;;;;;;5071344;28;20040;-62
2022/10/08 12:52:10;;;;;;;8.07;1.13;;;15.40;46.30;;;;;;5070576;28;20093;-63
2022/10/08 12:54:44;;;;;;;8.13;0.90;;;15.10;1.00;;;;;;5072216;28;20052;-62
2022/10/08 12:57:12;;;;;;;7.72;1.08;;;14.70;99.90;;;;;;5070550;28;20452;-63
2022/10/08 12:59:40;;;;;;;8.80;1.40;;;14.30;99.90;;;;;;5071781;28;20040;-63
2022/10/08 13:02:35;;;;;;;7.78;1.00;;;15.60;99.90;;;;;;5070379;28;20051;-62
2022/10/08 13:05:03;;;;;;;5.75;1.05;;;14.00;1.00;;;;;;5068064;28;21316;-64
2022/10/08 13:07:31;;;;;;;6.85;1.05;;;14.10;1.00;;;;;;5069950;28;20039;-64